createdAt,value
2017-11-16T00:01:53.044Z,68.63
2017-11-16T00:04:19.011Z,68.77
2017-11-16T00:06:44.986Z,68.49
2017-11-16T00:09:10.941Z,67.91
2017-11-16T00:11:36.899Z,68.32
2017-11-16T00:14:02.875Z,68.71
2017-11-16T00:16:28.812Z,68.55
2017-11-16T00:18:54.757Z,68.57
2017-11-16T00:21:20.696Z,68.35
2017-11-16T00:23:46.670Z,68.09
2017-11-16T00:26:12.606Z,67.82
2017-11-16T00:28:38.560Z,68.85
2017-11-16T00:31:04.506Z,68.62
2017-11-16T00:33:30.445Z,68.67
2017-11-16T00:35:56.379Z,68.85
2017-11-16T00:38:22.330Z,68.42
2017-11-16T00:40:48.282Z,68.95
2017-11-16T00:43:14.229Z,68.54
2017-11-16T00:45:40.177Z,69.15
2017-11-16T00:48:06.136Z,68.59
2017-11-16T00:50:32.072Z,68.27
2017-11-16T00:52:58.021Z,68.56
2017-11-16T00:55:23.952Z,68.99
2017-11-16T00:57:49.893Z,68.42
2017-11-16T01:00:15.837Z,68.69
2017-11-16T01:02:41.770Z,68.61
2017-11-16T01:05:07.718Z,67.80
2017-11-16T01:07:33.668Z,67.13
2017-11-16T01:09:59.623Z,66.87
2017-11-16T01:12:25.570Z,67.14
2017-11-16T01:14:51.512Z,67.79
2017-11-16T01:17:17.450Z,67.93
2017-11-16T01:19:43.386Z,67.91
2017-11-16T01:22:09.335Z,67.92
2017-11-16T01:24:35.285Z,68.35
2017-11-16T01:27:01.236Z,68.45
2017-11-16T01:29:27.172Z,68.00
2017-11-16T01:31:53.104Z,67.88
2017-11-16T01:34:19.090Z,67.66
2017-11-16T01:36:45.035Z,67.25
2017-11-16T01:39:10.984Z,67.52
2017-11-16T01:41:36.934Z,68.10
2017-11-16T01:44:02.870Z,68.16
2017-11-16T01:46:28.808Z,67.92
2017-11-16T01:48:54.735Z,68.33
2017-11-16T01:51:20.701Z,68.50
2017-11-16T01:53:46.632Z,68.32
2017-11-16T01:56:12.569Z,67.63
2017-11-16T01:58:38.510Z,68.13
2017-11-16T02:01:04.452Z,67.54
2017-11-16T02:03:30.410Z,68.33
2017-11-16T02:05:56.349Z,68.51
2017-11-16T02:08:22.281Z,68.27
2017-11-16T02:10:48.236Z,68.82
2017-11-16T02:13:14.176Z,68.63
2017-11-16T02:15:40.104Z,68.22
2017-11-16T02:18:06.032Z,68.39
2017-11-16T02:20:31.965Z,68.19
2017-11-16T02:22:57.919Z,68.42
2017-11-16T02:25:23.853Z,68.22
2017-11-16T02:27:49.785Z,67.40
2017-11-16T02:30:15.712Z,67.54
2017-11-16T02:32:41.640Z,68.23
2017-11-16T02:35:07.615Z,67.96
2017-11-16T02:37:33.544Z,67.86
2017-11-16T02:39:59.478Z,68.74
2017-11-16T02:42:25.428Z,68.83
2017-11-16T02:44:51.382Z,69.04
2017-11-16T02:47:17.324Z,69.11
2017-11-16T02:49:43.276Z,68.13
2017-11-16T02:52:09.220Z,68.11
2017-11-16T02:54:35.143Z,68.49
2017-11-16T02:57:01.084Z,68.58
2017-11-16T02:59:27.034Z,69.18
2017-11-16T03:01:52.960Z,69.46
2017-11-16T03:04:18.902Z,69.89
2017-11-16T03:06:44.828Z,69.21
2017-11-16T03:09:10.749Z,69.36
2017-11-16T03:11:36.695Z,69.13
2017-11-16T03:14:02.632Z,69.57
2017-11-16T03:16:28.564Z,69.49
2017-11-16T03:18:54.495Z,69.02
2017-11-16T03:21:20.427Z,69.49
2017-11-16T03:23:46.370Z,69.67
2017-11-16T03:26:12.287Z,69.29
2017-11-16T03:28:38.219Z,69.52
2017-11-16T03:31:04.162Z,69.78
2017-11-16T03:33:30.104Z,69.29
2017-11-16T03:35:56.042Z,69.52
2017-11-16T03:38:21.976Z,69.44
2017-11-16T03:40:47.922Z,69.50
2017-11-16T03:43:13.856Z,69.20
2017-11-16T03:45:39.920Z,69.27
2017-11-16T03:48:05.858Z,69.63
2017-11-16T03:50:31.830Z,69.69
2017-11-16T03:52:57.769Z,69.69
2017-11-16T03:55:23.686Z,69.44
2017-11-16T03:57:49.626Z,69.94
2017-11-16T04:00:15.564Z,69.86
2017-11-16T04:02:41.510Z,69.91
2017-11-16T04:05:07.436Z,70.09
2017-11-16T04:07:33.368Z,69.86
2017-11-16T04:09:59.303Z,69.81
2017-11-16T04:12:25.249Z,69.78
2017-11-16T04:14:51.209Z,69.36
2017-11-16T04:17:17.138Z,69.12
2017-11-16T04:19:43.060Z,69.50
2017-11-16T04:22:08.992Z,69.39
2017-11-16T04:24:34.940Z,69.31
2017-11-16T04:27:00.887Z,69.69
2017-11-16T04:29:26.844Z,69.34
2017-11-16T04:31:52.767Z,69.28
2017-11-16T04:34:18.710Z,69.00
2017-11-16T04:36:44.654Z,69.04
2017-11-16T04:39:10.617Z,68.49
2017-11-16T04:41:36.549Z,69.08
2017-11-16T04:44:02.496Z,69.93
2017-11-16T04:46:28.540Z,69.99
2017-11-16T04:48:54.559Z,69.68
2017-11-16T04:51:20.505Z,69.55
2017-11-16T04:53:46.462Z,69.62
2017-11-16T04:56:12.433Z,69.72
2017-11-16T04:58:38.390Z,69.21
2017-11-16T05:01:04.355Z,68.86
2017-11-16T05:03:30.327Z,69.27
2017-11-16T05:05:56.267Z,69.44
2017-11-16T05:08:22.262Z,69.84
2017-11-16T05:10:48.231Z,70.15
2017-11-16T05:13:14.192Z,69.58
2017-11-16T05:15:40.122Z,69.43
2017-11-16T05:18:06.050Z,69.46
2017-11-16T05:20:31.992Z,69.80
2017-11-16T05:22:57.950Z,69.49
2017-11-16T05:25:23.883Z,69.22
2017-11-16T05:27:49.846Z,69.09
2017-11-16T05:30:15.796Z,69.00
2017-11-16T05:32:41.735Z,69.84
2017-11-16T05:35:07.674Z,68.46
2017-11-16T05:37:33.659Z,67.85
2017-11-16T05:39:59.600Z,68.12
2017-11-16T05:42:25.529Z,68.02
2017-11-16T05:44:51.482Z,68.05
2017-11-16T05:47:17.415Z,67.95
2017-11-16T05:49:43.359Z,67.73
2017-11-16T05:52:09.324Z,68.23
2017-11-16T05:54:35.243Z,68.17
2017-11-16T05:57:01.185Z,68.03
2017-11-16T05:59:27.120Z,68.57
2017-11-16T06:01:53.071Z,68.03
2017-11-16T06:04:19.028Z,67.58
2017-11-16T06:06:44.992Z,68.27
2017-11-16T06:09:10.918Z,67.96
2017-11-16T06:11:36.870Z,68.02
2017-11-16T06:14:02.816Z,67.60
2017-11-16T06:16:28.778Z,66.22
2017-11-16T06:18:54.739Z,67.16
2017-11-16T06:21:20.676Z,67.52
2017-11-16T06:23:46.619Z,67.39
2017-11-16T06:26:12.543Z,67.93
2017-11-16T06:28:38.478Z,67.58
2017-11-16T06:31:04.430Z,67.91
2017-11-16T06:33:30.372Z,68.55
2017-11-16T06:35:56.348Z,67.66
2017-11-16T06:38:22.289Z,68.34
2017-11-16T06:40:48.255Z,68.16
2017-11-16T06:43:14.211Z,68.40
2017-11-16T06:45:40.190Z,69.24
2017-11-16T06:48:06.134Z,69.38
2017-11-16T06:50:32.112Z,68.81
2017-11-16T06:52:58.051Z,68.61
2017-11-16T06:55:23.989Z,69.39
2017-11-16T06:57:49.948Z,69.58
2017-11-16T07:00:15.890Z,69.33
2017-11-16T07:02:41.878Z,69.41
2017-11-16T07:05:07.914Z,69.24
2017-11-16T07:07:33.845Z,69.52
2017-11-16T07:09:59.788Z,68.78
2017-11-16T07:12:25.732Z,68.49
2017-11-16T07:14:51.682Z,67.48
2017-11-16T07:17:17.667Z,67.49
2017-11-16T07:19:43.600Z,67.59
2017-11-16T07:22:09.559Z,68.49
2017-11-16T07:24:35.510Z,69.08
2017-11-16T07:27:01.457Z,68.79
2017-11-16T07:29:27.408Z,68.27
2017-11-16T07:31:53.340Z,68.82
2017-11-16T07:34:19.256Z,68.49
2017-11-16T07:36:45.188Z,68.30
2017-11-16T07:39:11.132Z,68.55
2017-11-16T07:41:37.072Z,68.26
2017-11-16T07:44:03.048Z,68.26
2017-11-16T07:46:29.018Z,67.33
2017-11-16T07:48:54.990Z,66.61
2017-11-16T07:51:20.940Z,66.97
2017-11-16T07:53:46.880Z,66.31
2017-11-16T07:56:12.910Z,66.48
2017-11-16T07:58:38.848Z,66.89
2017-11-16T08:01:04.780Z,66.70
2017-11-16T08:03:30.753Z,66.24
2017-11-16T08:05:56.700Z,66.61
2017-11-16T08:08:22.628Z,66.30
2017-11-16T08:10:48.588Z,66.06
2017-11-16T08:13:14.570Z,65.34
2017-11-16T08:15:40.519Z,65.25
2017-11-16T08:18:06.469Z,64.98
2017-11-16T08:20:32.409Z,64.71
2017-11-16T08:22:58.336Z,64.55
2017-11-16T08:25:24.285Z,63.97
2017-11-16T08:27:50.234Z,63.36
2017-11-16T08:30:16.211Z,63.40
2017-11-16T08:32:42.156Z,62.92
2017-11-16T08:35:08.088Z,62.85
2017-11-16T08:37:34.016Z,63.32
2017-11-16T08:39:59.956Z,63.39
2017-11-16T08:42:25.887Z,63.82
2017-11-16T08:44:51.847Z,62.99
2017-11-16T08:47:17.792Z,63.68
2017-11-16T08:49:43.749Z,63.28
2017-11-16T08:52:09.706Z,62.92
2017-11-16T08:54:35.660Z,62.69
2017-11-16T08:57:01.605Z,63.08
2017-11-16T08:59:27.584Z,63.39
2017-11-16T09:01:53.540Z,62.72
2017-11-16T09:04:19.511Z,62.95
2017-11-16T09:06:45.444Z,62.85
2017-11-16T09:09:11.424Z,62.81
2017-11-16T09:11:37.371Z,62.36
2017-11-16T09:14:03.312Z,61.66
2017-11-16T09:16:29.302Z,61.73
2017-11-16T09:18:55.234Z,61.82
2017-11-16T09:21:21.172Z,61.61
2017-11-16T09:23:47.149Z,60.98
2017-11-16T09:26:13.088Z,61.63
2017-11-16T09:28:39.057Z,62.25
2017-11-16T09:31:04.985Z,62.43
2017-11-16T09:33:30.920Z,62.54
2017-11-16T09:35:56.864Z,62.66
2017-11-16T09:38:22.810Z,63.14
2017-11-16T09:40:48.763Z,62.56
2017-11-16T09:43:14.721Z,63.17
2017-11-16T09:45:40.678Z,62.90
2017-11-16T09:48:06.625Z,62.40
2017-11-16T09:50:32.582Z,62.54
2017-11-16T09:52:58.515Z,62.18
2017-11-16T09:55:24.448Z,62.31
2017-11-16T09:57:50.388Z,62.01
2017-11-16T10:00:16.355Z,62.00
2017-11-16T10:02:42.334Z,61.87
2017-11-16T10:05:08.284Z,61.93
2017-11-16T10:07:34.273Z,61.71
2017-11-16T10:10:00.624Z,61.55
2017-11-16T10:12:26.572Z,61.59
2017-11-16T10:14:52.536Z,61.73
2017-11-16T10:17:18.508Z,61.09
2017-11-16T10:19:44.436Z,61.44
2017-11-16T10:22:10.390Z,61.16
2017-11-16T10:24:36.333Z,61.31
2017-11-16T10:27:02.298Z,61.40
2017-11-16T10:29:28.245Z,61.19
2017-11-16T10:31:54.196Z,61.51
2017-11-16T10:34:20.135Z,61.36
2017-11-16T10:36:46.072Z,61.29
2017-11-16T10:39:12.018Z,60.70
2017-11-16T10:41:38.005Z,60.98
2017-11-16T10:44:03.940Z,60.54
2017-11-16T10:46:29.893Z,60.89
2017-11-16T10:48:55.821Z,61.16
2017-11-16T10:51:21.756Z,60.31
2017-11-16T10:53:47.692Z,60.07
2017-11-16T10:56:13.612Z,60.27
2017-11-16T10:58:39.597Z,60.28
2017-11-16T11:01:05.545Z,60.33
2017-11-16T11:03:31.486Z,59.99
2017-11-16T11:05:57.435Z,60.56
2017-11-16T11:08:23.357Z,60.39
2017-11-16T11:10:49.281Z,59.87
2017-11-16T11:13:15.227Z,59.55
2017-11-16T11:15:41.159Z,60.20
2017-11-16T11:18:07.096Z,59.94
2017-11-16T11:20:33.044Z,59.83
2017-11-16T11:22:58.982Z,60.15
2017-11-16T11:25:24.935Z,59.98
2017-11-16T11:27:50.873Z,59.98
2017-11-16T11:30:16.833Z,60.08
2017-11-16T11:32:42.785Z,60.05
2017-11-16T11:35:08.730Z,60.04
2017-11-16T11:37:34.672Z,59.92
2017-11-16T11:40:00.616Z,60.03
2017-11-16T11:42:26.556Z,59.65
2017-11-16T11:44:52.524Z,59.93
2017-11-16T11:47:18.444Z,60.37
2017-11-16T11:49:44.404Z,59.76
2017-11-16T11:52:10.340Z,59.26
2017-11-16T11:54:36.276Z,59.47
2017-11-16T11:57:02.208Z,59.53
2017-11-16T11:59:28.140Z,59.41
2017-11-16T12:01:54.165Z,59.65
2017-11-16T12:04:20.102Z,59.86
2017-11-16T12:06:46.060Z,59.89
2017-11-16T12:09:11.999Z,59.80
2017-11-16T12:11:37.923Z,59.67
2017-11-16T12:14:03.900Z,59.57
2017-11-16T12:16:29.863Z,60.12
2017-11-16T12:18:55.796Z,59.77
2017-11-16T12:21:21.747Z,59.03
2017-11-16T12:23:47.710Z,59.21
2017-11-16T12:26:13.657Z,59.19
2017-11-16T12:28:39.612Z,59.23
2017-11-16T12:31:05.565Z,58.71
2017-11-16T12:33:31.502Z,58.69
2017-11-16T12:35:57.449Z,59.12
2017-11-16T12:38:23.372Z,58.95
2017-11-16T12:40:49.321Z,59.42
2017-11-16T12:43:15.262Z,58.81
2017-11-16T12:45:41.240Z,58.70
2017-11-16T12:48:07.218Z,59.20
2017-11-16T12:50:33.152Z,58.54
2017-11-16T12:52:59.102Z,59.20
2017-11-16T12:55:25.042Z,59.30
2017-11-16T12:57:50.984Z,59.07
2017-11-16T13:00:16.964Z,58.74
2017-11-16T13:02:42.892Z,58.60
2017-11-16T13:05:08.817Z,59.58
2017-11-16T13:07:34.836Z,59.60
2017-11-16T13:10:00.774Z,59.60
2017-11-16T13:12:26.745Z,58.87
2017-11-16T13:14:52.716Z,58.90
2017-11-16T13:17:18.660Z,58.74
2017-11-16T13:19:44.588Z,58.44
2017-11-16T13:22:10.530Z,58.70
2017-11-16T13:24:36.502Z,58.86
2017-11-16T13:27:02.458Z,59.08
2017-11-16T13:29:28.382Z,59.08
2017-11-16T13:31:54.321Z,58.99
2017-11-16T13:34:20.261Z,59.11
2017-11-16T13:36:46.193Z,59.18
2017-11-16T13:39:12.179Z,59.10
2017-11-16T13:41:38.110Z,58.91
2017-11-16T13:44:04.054Z,58.60
2017-11-16T13:46:30.007Z,59.46
2017-11-16T13:48:56.000Z,59.62
2017-11-16T13:51:21.952Z,59.32
2017-11-16T13:53:47.924Z,59.34
2017-11-16T13:56:13.868Z,58.86
2017-11-16T13:58:39.797Z,58.98
2017-11-16T14:01:05.768Z,59.27
2017-11-16T14:03:31.708Z,59.15
2017-11-16T14:05:57.660Z,59.09
2017-11-16T14:08:23.632Z,58.59
2017-11-16T14:10:49.575Z,58.85
2017-11-16T14:13:15.520Z,58.58
2017-11-16T14:15:41.467Z,59.03
2017-11-16T14:18:07.420Z,59.19
2017-11-16T14:20:33.371Z,59.84
2017-11-16T14:22:59.357Z,59.64
2017-11-16T14:25:25.292Z,59.40
2017-11-16T14:27:51.225Z,59.54
2017-11-16T14:30:17.155Z,59.60
2017-11-16T14:32:43.089Z,58.93
2017-11-16T14:35:09.056Z,59.63
2017-11-16T14:37:35.004Z,59.11
2017-11-16T14:40:00.939Z,59.16
2017-11-16T14:42:26.920Z,58.75
2017-11-16T14:44:52.867Z,59.47
2017-11-16T14:47:18.831Z,59.77
2017-11-16T14:49:44.792Z,58.91
2017-11-16T14:52:10.769Z,58.92
2017-11-16T14:54:36.727Z,59.33
2017-11-16T14:57:02.657Z,59.68
2017-11-16T14:59:28.584Z,59.09
2017-11-16T15:01:54.527Z,60.37
2017-11-16T15:04:20.472Z,60.04
2017-11-16T15:06:46.430Z,59.68
2017-11-16T15:09:12.388Z,60.04
2017-11-16T15:11:38.349Z,60.21
2017-11-16T15:14:04.333Z,60.47
2017-11-16T15:16:30.273Z,60.73
2017-11-16T15:18:56.215Z,60.45
2017-11-16T15:21:22.173Z,60.50
2017-11-16T15:23:48.135Z,61.02
2017-11-16T15:26:14.085Z,61.23
2017-11-16T15:28:40.031Z,61.46
2017-11-16T15:31:05.998Z,61.51
2017-11-16T15:33:31.952Z,61.38
2017-11-16T15:35:57.996Z,61.84
2017-11-16T15:38:23.923Z,61.73
2017-11-16T15:40:49.853Z,61.70
2017-11-16T15:43:15.783Z,61.60
2017-11-16T15:45:41.749Z,62.03
2017-11-16T15:48:07.697Z,61.89
2017-11-16T15:50:33.641Z,62.17
2017-11-16T15:52:59.588Z,62.43
2017-11-16T15:55:25.539Z,62.49
2017-11-16T15:57:51.494Z,61.85
2017-11-16T16:00:17.447Z,62.42
2017-11-16T16:02:43.383Z,62.48
2017-11-16T16:05:09.326Z,62.54
2017-11-16T16:07:35.270Z,62.30
2017-11-16T16:10:01.236Z,62.06
2017-11-16T16:12:27.189Z,61.74
2017-11-16T16:14:53.145Z,61.51
2017-11-16T16:17:19.096Z,61.72
2017-11-16T16:19:45.034Z,61.46
2017-11-16T16:22:10.981Z,61.12
2017-11-16T16:24:36.915Z,60.08
2017-11-16T16:27:02.853Z,60.83
2017-11-16T16:29:28.802Z,60.65
2017-11-16T16:31:54.771Z,61.27
2017-11-16T16:34:20.754Z,61.28
2017-11-16T16:36:46.690Z,61.18
2017-11-16T16:39:12.642Z,61.27
2017-11-16T16:41:38.583Z,60.99
2017-11-16T16:44:04.549Z,61.00
2017-11-16T16:46:30.582Z,61.38
2017-11-16T16:48:56.523Z,61.57
2017-11-16T16:51:22.479Z,60.94
2017-11-16T16:53:48.558Z,61.14
2017-11-16T16:56:14.505Z,61.30
2017-11-16T16:58:40.490Z,61.54
2017-11-16T17:01:06.458Z,61.09
2017-11-16T17:03:32.544Z,60.77
2017-11-16T17:05:58.677Z,61.28
2017-11-16T17:08:24.628Z,61.07
2017-11-16T17:10:50.574Z,60.83
2017-11-16T17:13:16.515Z,61.32
2017-11-16T17:15:42.506Z,61.16
2017-11-16T17:18:08.455Z,61.30
2017-11-16T17:20:34.415Z,61.41
2017-11-16T17:23:00.353Z,61.94
2017-11-16T17:25:26.285Z,61.53
2017-11-16T17:27:52.225Z,61.31
2017-11-16T17:30:18.160Z,61.73
2017-11-16T17:32:44.220Z,61.47
2017-11-16T17:35:10.155Z,61.97
2017-11-16T17:37:36.085Z,61.65
2017-11-16T17:40:02.049Z,61.77
2017-11-16T17:42:27.999Z,61.85
2017-11-16T17:44:54.029Z,61.51
2017-11-16T17:47:19.983Z,62.07
2017-11-16T17:49:45.917Z,62.25
2017-11-16T17:52:11.867Z,62.39
2017-11-16T17:54:37.831Z,62.48
2017-11-16T17:57:03.775Z,62.14
2017-11-16T17:59:29.715Z,62.16
2017-11-16T18:01:55.656Z,61.93
2017-11-16T18:04:21.683Z,62.13
2017-11-16T18:06:47.619Z,62.17
2017-11-16T18:09:13.578Z,62.60
2017-11-16T18:11:39.542Z,62.60
2017-11-16T18:14:05.492Z,62.71
2017-11-16T18:16:31.439Z,63.17
2017-11-16T18:18:57.381Z,63.00
2017-11-16T18:21:23.331Z,62.99
2017-11-16T18:23:49.278Z,63.23
2017-11-16T18:26:15.225Z,63.03
2017-11-16T18:28:41.152Z,63.29
2017-11-16T18:31:07.144Z,62.88
2017-11-16T18:33:33.090Z,64.03
2017-11-16T18:35:59.039Z,63.65
2017-11-16T18:38:25.001Z,64.10
2017-11-16T18:40:50.941Z,64.31
2017-11-16T18:43:16.889Z,64.20
2017-11-16T18:45:42.817Z,64.11
2017-11-16T18:48:08.769Z,64.78
2017-11-16T18:50:34.705Z,64.80
2017-11-16T18:53:00.899Z,64.96
2017-11-16T18:55:26.875Z,65.10
2017-11-16T18:57:52.825Z,65.38
2017-11-16T19:00:19.059Z,65.33
2017-11-16T19:02:45.141Z,64.78
2017-11-16T19:05:11.081Z,64.95
2017-11-16T19:07:37.029Z,65.19
2017-11-16T19:10:02.957Z,65.33
2017-11-16T19:12:28.926Z,65.87
2017-11-16T19:14:54.858Z,66.22
2017-11-16T19:17:20.800Z,66.20
2017-11-16T19:19:46.746Z,66.61
2017-11-16T19:22:12.695Z,66.46
2017-11-16T19:24:39.464Z,66.33
2017-11-16T19:27:05.407Z,66.19
2017-11-16T19:29:31.340Z,66.33
2017-11-16T19:31:57.318Z,67.05
2017-11-16T19:34:23.258Z,66.82
2017-11-16T19:36:49.536Z,67.13
2017-11-16T19:39:15.486Z,67.40
2017-11-16T19:41:41.441Z,67.15
2017-11-16T19:44:07.381Z,67.14
2017-11-16T19:46:34.972Z,67.07
2017-11-16T19:49:00.917Z,67.12
2017-11-16T19:51:27.181Z,67.07
2017-11-16T19:53:53.133Z,67.48
2017-11-16T19:56:19.085Z,67.01
2017-11-16T19:58:45.030Z,67.31
2017-11-16T20:01:11.266Z,67.08
2017-11-16T20:03:37.213Z,67.09
2017-11-16T20:06:03.161Z,67.27
2017-11-16T20:08:29.317Z,67.89
2017-11-16T20:10:55.253Z,67.61
2017-11-16T20:13:21.183Z,67.09
2017-11-16T20:15:47.136Z,67.30
2017-11-16T20:18:13.088Z,67.08
2017-11-16T20:20:39.134Z,67.34
2017-11-16T20:23:05.074Z,66.99
2017-11-16T20:25:31.014Z,67.23
2017-11-16T20:27:56.968Z,66.83
2017-11-16T20:30:22.924Z,66.93
2017-11-16T20:32:48.875Z,66.96
2017-11-16T20:35:14.806Z,67.22
2017-11-16T20:37:40.758Z,67.41
2017-11-16T20:40:06.725Z,66.97
2017-11-16T20:42:32.665Z,66.62
2017-11-16T20:44:58.640Z,65.96
2017-11-16T20:47:24.660Z,66.05
2017-11-16T20:49:50.600Z,65.95
2017-11-16T20:52:16.539Z,65.10
2017-11-16T20:54:42.480Z,65.29
2017-11-16T20:57:08.414Z,65.56
2017-11-16T20:59:34.354Z,64.76
2017-11-16T21:02:00.289Z,64.30
2017-11-16T21:04:26.244Z,64.25
2017-11-16T21:06:52.183Z,63.95
2017-11-16T21:09:18.123Z,63.33
2017-11-16T21:11:44.066Z,63.02
2017-11-16T21:14:10.000Z,62.63
2017-11-16T21:16:35.963Z,61.75
2017-11-16T21:19:01.906Z,61.24
2017-11-16T21:21:27.870Z,60.93
2017-11-16T21:23:53.904Z,60.80
2017-11-16T21:26:19.924Z,60.79
2017-11-16T21:28:45.860Z,60.72
2017-11-16T21:31:11.812Z,61.08
2017-11-16T21:33:37.771Z,61.07
2017-11-16T21:36:03.830Z,60.78
2017-11-16T21:38:29.756Z,61.07
2017-11-16T21:40:55.680Z,60.98
2017-11-16T21:43:21.609Z,60.76
2017-11-16T21:45:47.549Z,60.80
2017-11-16T21:48:13.496Z,61.03
2017-11-16T21:50:39.425Z,60.81
2017-11-16T21:53:05.477Z,60.73
2017-11-16T21:55:31.427Z,60.66
2017-11-16T21:57:57.366Z,60.42
2017-11-16T22:00:23.328Z,60.04
2017-11-16T22:02:49.275Z,59.69
2017-11-16T22:05:15.212Z,59.81
2017-11-16T22:07:41.153Z,60.02
2017-11-16T22:10:07.082Z,60.52
2017-11-16T22:12:33.044Z,60.50
2017-11-16T22:14:58.987Z,60.02
2017-11-16T22:17:24.913Z,60.45
2017-11-16T22:19:50.861Z,61.12
2017-11-16T22:22:16.800Z,60.99
2017-11-16T22:24:42.782Z,60.61
2017-11-16T22:27:08.724Z,61.05
2017-11-16T22:29:34.665Z,61.39
2017-11-16T22:32:00.619Z,61.37
2017-11-16T22:34:26.569Z,61.39
2017-11-16T22:36:52.521Z,61.97
2017-11-16T22:39:18.466Z,61.74
2017-11-16T22:41:44.520Z,61.29
2017-11-16T22:44:10.475Z,62.04
2017-11-16T22:46:36.405Z,62.08
2017-11-16T22:49:02.368Z,62.29
2017-11-16T22:51:28.299Z,62.92
2017-11-16T22:53:54.226Z,62.80
2017-11-16T22:56:20.166Z,62.38
2017-11-16T22:58:46.104Z,62.67
2017-11-16T23:01:12.043Z,63.50
2017-11-16T23:03:38.009Z,63.42
2017-11-16T23:06:03.936Z,63.29
2017-11-16T23:08:29.890Z,62.81
2017-11-16T23:10:57.459Z,62.42
2017-11-16T23:13:23.391Z,63.67
2017-11-16T23:15:49.333Z,63.68
2017-11-16T23:18:15.266Z,63.14
2017-11-16T23:20:41.195Z,63.92
2017-11-16T23:23:07.145Z,63.38
2017-11-16T23:25:33.196Z,63.20
2017-11-16T23:27:59.127Z,62.71
2017-11-16T23:30:25.081Z,63.40
2017-11-16T23:32:51.013Z,63.72
2017-11-16T23:35:16.945Z,63.88
2017-11-16T23:37:42.887Z,64.30
2017-11-16T23:40:08.818Z,63.32
2017-11-16T23:42:34.752Z,63.90
2017-11-16T23:45:00.720Z,64.31
2017-11-16T23:47:26.665Z,64.66
2017-11-16T23:49:52.608Z,63.85
2017-11-16T23:52:18.533Z,63.48
2017-11-16T23:54:44.488Z,64.08
2017-11-16T23:57:10.429Z,63.77
2017-11-16T23:59:36.362Z,63.87
